Time;durP1;ratioP1;P1;durP2;ratioP2;P2;SDS_P1;SDS_P2;PMS_P1;PMS_P2;Temp;Humidity;BMP_temperature;BMP_pressure;BME280_temperature;BME280_humidity;BME280_pressure;Samples;Min_cycle;Max_cycle;Signal;HPM_P1;HPM_P2
2022/05/20 00:01:42;;;;;;;8.20;4.05;;;;;18.00;94774.00;;;;7394769;19;20592;-80
2022/05/20 00:04:30;;;;;;;5.18;4.35;;;;;17.80;94777.00;;;;7393708;19;20187;-82
2022/05/20 00:07:05;;;;;;;6.35;4.28;;;;;17.90;94774.00;;;;7394835;19;20141;-82
2022/05/20 00:09:38;;;;;;;7.90;4.10;;;;;17.80;94775.00;;;;7395072;19;20129;-81
2022/05/20 00:12:06;;;;;;;6.90;4.13;;;;;17.90;94782.00;;;;7394700;19;20153;-81
2022/05/20 00:14:34;;;;;;;5.22;3.88;;;;;17.60;94766.00;;;;7395849;19;20200;-82
2022/05/20 00:17:08;;;;;;;6.07;4.00;;;;;17.50;94759.00;;;;7396735;19;20128;-82
2022/05/20 00:19:36;;;;;;;8.50;4.38;;;;;17.50;94766.00;;;;7394890;19;20170;-83
2022/05/20 00:22:05;;;;;;;7.35;4.30;;;;;17.50;94775.00;;;;7394815;19;20152;-81
2022/05/20 00:25:45;;;;;;;11.40;4.55;;;;;17.40;94763.00;;;;7394253;19;20137;-81
2022/05/20 00:27:27;;;;;;;9.10;4.55;;;;;17.30;94768.00;;;;7393452;19;20141;-83
2022/05/20 00:30:02;;;;;;;7.45;4.43;;;;;17.30;94764.00;;;;7394249;19;20157;-81
2022/05/20 00:32:29;;;;;;;4.38;3.97;;;;;17.10;94760.00;;;;7394241;19;20162;-83
2022/05/20 00:34:57;;;;;;;11.70;4.57;;;;;17.10;94757.00;;;;7392118;19;20145;-82
2022/05/20 00:37:31;;;;;;;4.78;4.28;;;;;17.10;94749.00;;;;7393959;19;20642;-82
2022/05/20 00:39:59;;;;;;;6.65;4.63;;;;;17.20;94749.00;;;;7393416;19;20208;-82
2022/05/20 00:42:27;;;;;;;8.32;4.63;;;;;17.10;94750.00;;;;7394565;19;20173;-83
2022/05/20 00:45:06;;;;;;;6.05;4.93;;;;;17.20;94747.00;;;;7393834;19;20141;-82
2022/05/20 00:47:33;;;;;;;8.55;5.43;;;;;17.30;94746.00;;;;7393884;19;20643;-82
2022/05/20 00:50:08;;;;;;;8.45;5.20;;;;;17.40;94737.00;;;;7394121;19;20141;-83
2022/05/20 00:52:47;;;;;;;6.78;5.15;;;;;17.30;94741.00;;;;7394129;19;20143;-80
2022/05/20 00:55:18;;;;;;;9.63;5.22;;;;;17.40;94738.00;;;;7393974;19;20818;-84
2022/05/20 00:57:57;;;;;;;7.72;5.50;;;;;17.50;94734.00;;;;7393761;19;20148;-84
2022/05/20 01:00:28;;;;;;;11.95;5.05;;;;;17.50;94735.00;;;;7393381;19;20141;-83
2022/05/20 01:03:17;;;;;;;8.93;5.55;;;;;17.50;94742.00;;;;7392516;19;20128;-82
2022/05/20 01:05:53;;;;;;;11.98;6.07;;;;;17.50;94733.00;;;;7391757;19;20132;-83
2022/05/20 01:08:30;;;;;;;10.07;5.57;;;;;17.30;94739.00;;;;7393394;19;20203;-82
2022/05/20 01:10:59;;;;;;;12.02;5.05;;;;;17.50;94731.00;;;;7393822;19;20594;-83
2022/05/20 01:13:29;;;;;;;8.00;4.93;;;;;17.50;94733.00;;;;7397928;19;20461;-83
2022/05/20 01:16:08;;;;;;;10.88;5.50;;;;;17.50;94732.00;;;;7385848;19;20200;-84
2022/05/20 01:18:38;;;;;;;9.10;5.30;;;;;17.50;94726.00;;;;7393197;19;20921;-80
2022/05/20 01:21:13;;;;;;;12.43;5.68;;;;;17.60;94730.00;;;;7393234;19;20132;-81
2022/05/20 01:23:41;;;;;;;7.30;5.47;;;;;17.60;94723.00;;;;7393085;19;20157;-82
2022/05/20 01:26:09;;;;;;;10.60;5.22;;;;;17.50;94721.00;;;;7391404;19;20159;-82
2022/05/20 01:28:42;;;;;;;6.75;5.38;;;;;17.50;94720.00;;;;7392104;19;20168;-84
2022/05/20 01:31:14;;;;;;;7.57;5.55;;;;;17.50;94714.00;;;;7392579;19;20147;-80
2022/05/20 01:33:51;;;;;;;7.68;5.97;;;;;17.50;94717.00;;;;7392165;19;20161;-83
2022/05/20 01:36:26;;;;;;;7.97;5.10;;;;;17.40;94717.00;;;;7392219;19;20116;-83
2022/05/20 01:38:54;;;;;;;9.02;4.68;;;;;17.20;94716.00;;;;7388800;19;20152;-81
2022/05/20 01:41:35;;;;;;;7.50;5.43;;;;;17.30;94712.00;;;;7391561;19;20145;-83
2022/05/20 01:44:34;;;;;;;6.72;5.05;;;;;17.20;94722.00;;;;7391746;19;20871;-82
2022/05/20 01:47:08;;;;;;;9.05;5.43;;;;;17.10;94718.00;;;;7389714;19;20724;-84
2022/05/20 01:49:52;;;;;;;10.40;5.30;;;;;17.00;94722.00;;;;7392105;19;20144;-83
2022/05/20 01:52:53;;;;;;;8.55;5.00;;;;;16.90;94719.00;;;;7392236;19;20160;-84
2022/05/20 01:56:06;;;;;;;6.57;5.40;;;;;16.90;94717.00;;;;7392133;19;20600;-82
2022/05/20 01:58:43;;;;;;;7.72;5.15;;;;;16.80;94719.00;;;;7391348;19;20186;-82
2022/05/20 02:01:23;;;;;;;6.32;5.53;;;;;16.80;94720.00;;;;7390629;19;20128;-83
2022/05/20 02:04:03;;;;;;;12.75;4.63;;;;;16.60;94714.00;;;;7390660;19;20160;-81
2022/05/20 02:06:48;;;;;;;9.23;5.70;;;;;16.50;94713.00;;;;7391878;19;20204;-82
2022/05/20 02:09:23;;;;;;;7.95;4.78;;;;;16.50;94714.00;;;;7392461;19;20490;-82
2022/05/20 02:11:58;;;;;;;7.97;5.47;;;;;16.50;94710.00;;;;7391923;19;20140;-83
2022/05/20 02:14:42;;;;;;;12.38;5.35;;;;;16.70;94700.00;;;;7390693;19;20137;-83
2022/05/20 02:17:31;;;;;;;8.55;5.45;;;;;16.50;94710.00;;;;7392821;19;20613;-81
2022/05/20 02:20:23;;;;;;;7.20;5.20;;;;;16.50;94708.00;;;;7389197;19;20140;-82
2022/05/20 02:23:03;;;;;;;8.55;4.90;;;;;16.60;94711.00;;;;7390907;19;20144;-85
2022/05/20 02:25:42;;;;;;;10.48;4.97;;;;;16.70;94701.00;;;;7389210;19;20607;-82
2022/05/20 02:28:21;;;;;;;8.07;4.97;;;;;16.70;94704.00;;;;7390342;19;20164;-82
2022/05/20 02:30:50;;;;;;;9.52;5.20;;;;;16.80;94707.00;;;;7393027;19;20125;-81
2022/05/20 02:33:27;;;;;;;9.48;5.07;;;;;16.90;94704.00;;;;7390468;19;20160;-81
2022/05/20 02:36:16;;;;;;;8.20;4.70;;;;;16.80;94701.00;;;;7390519;19;20164;-81
2022/05/20 02:38:51;;;;;;;5.75;4.45;;;;;17.00;94700.00;;;;7391074;19;20220;-82
2022/05/20 02:41:18;;;;;;;7.05;4.82;;;;;17.00;94701.00;;;;7390212;19;20141;-83
2022/05/20 02:43:46;;;;;;;8.43;5.03;;;;;17.20;94690.00;;;;7389965;19;20595;-81
2022/05/20 02:46:19;;;;;;;7.15;4.57;;;;;17.00;94696.00;;;;7390054;19;20128;-80
2022/05/20 02:48:47;;;;;;;6.50;4.70;;;;;17.00;94691.00;;;;7389880;19;20126;-83
2022/05/20 02:51:17;;;;;;;8.02;4.97;;;;;17.00;94693.00;;;;7394046;19;20129;-81
2022/05/20 02:53:50;;;;;;;5.65;4.50;;;;;17.00;94698.00;;;;7398611;19;20205;-80
2022/05/20 02:56:18;;;;;;;9.85;4.55;;;;;16.90;94699.00;;;;7397386;19;20595;-82
2022/05/20 03:04:31;;;;;;;8.52;5.10;;;;;16.40;94696.00;;;;7396275;19;20140;-82
2022/05/20 03:07:13;;;;;;;11.13;5.03;;;;;16.30;94700.00;;;;7394741;19;20491;-81
2022/05/20 03:09:41;;;;;;;8.90;4.75;;;;;16.40;94698.00;;;;7396760;19;20149;-82
2022/05/20 03:12:15;;;;;;;6.60;4.63;;;;;16.30;94696.00;;;;7396363;19;20141;-81
2022/05/20 03:14:43;;;;;;;7.80;5.22;;;;;16.30;94704.00;;;;7397538;19;20857;-81
2022/05/20 03:17:11;;;;;;;7.15;4.97;;;;;16.40;94705.00;;;;7398045;19;20133;-81
2022/05/20 03:19:44;;;;;;;9.13;4.80;;;;;16.50;94702.00;;;;7399431;19;20145;-82
2022/05/20 03:22:12;;;;;;;5.43;4.45;;;;;16.40;94703.00;;;;7396388;19;20144;-81
2022/05/20 03:24:41;;;;;;;7.63;4.68;;;;;16.40;94703.00;;;;7397146;19;20132;-82
2022/05/20 03:27:17;;;;;;;7.20;4.38;;;;;16.70;94696.00;;;;7393979;19;20132;-82
2022/05/20 03:29:45;;;;;;;5.68;4.63;;;;;17.00;94694.00;;;;7395479;19;20145;-82
2022/05/20 03:32:14;;;;;;;7.32;4.93;;;;;17.20;94693.00;;;;7395518;19;20165;-82
2022/05/20 03:34:47;;;;;;;8.20;4.50;;;;;17.00;94692.00;;;;7394519;19;20168;-79
2022/05/20 03:37:15;;;;;;;5.15;4.28;;;;;17.10;94683.00;;;;7396034;19;20150;-82
2022/05/20 03:39:42;;;;;;;4.80;4.30;;;;;17.00;94685.00;;;;7395420;19;20133;-80
2022/05/20 03:42:16;;;;;;;5.90;4.38;;;;;16.90;94690.00;;;;7395329;19;20137;-81
2022/05/20 03:44:44;;;;;;;6.80;4.70;;;;;17.00;94691.00;;;;7397614;19;20135;-80
2022/05/20 03:47:11;;;;;;;6.60;4.60;;;;;17.00;94690.00;;;;7393569;19;20162;-81
2022/05/20 03:49:48;;;;;;;7.90;4.47;;;;;17.00;94691.00;;;;7395809;19;20137;-81
2022/05/20 03:52:16;;;;;;;6.30;4.63;;;;;16.80;94685.00;;;;7395272;19;20145;-82
2022/05/20 03:54:44;;;;;;;6.60;4.47;;;;;16.90;94680.00;;;;7395560;19;20133;-81
2022/05/20 03:57:18;;;;;;;8.43;4.25;;;;;16.90;94669.00;;;;7395957;19;20140;-81
2022/05/20 03:59:46;;;;;;;7.75;4.18;;;;;17.00;94672.00;;;;7397800;19;20519;-82
2022/05/20 04:02:14;;;;;;;8.75;4.28;;;;;17.20;94680.00;;;;7393499;19;20117;-83
2022/05/20 04:04:55;;;;;;;7.43;5.45;;;;;17.20;94677.00;;;;7392523;19;20182;-82
2022/05/20 04:07:25;;;;;;;7.47;4.50;;;;;17.10;94672.00;;;;7393314;19;20145;-80
2022/05/20 04:10:01;;;;;;;6.65;4.55;;;;;17.20;94677.00;;;;7395527;19;20499;-80
2022/05/20 04:12:35;;;;;;;7.47;4.63;;;;;17.40;94670.00;;;;7394474;19;20137;-82
2022/05/20 04:15:15;;;;;;;7.85;4.07;;;;;17.40;94671.00;;;;7396091;19;20583;-81
2022/05/20 04:17:42;;;;;;;9.23;5.57;;;;;17.40;94676.00;;;;7395156;19;20675;-82
2022/05/20 04:20:16;;;;;;;11.60;4.75;;;;;17.30;94672.00;;;;7394951;19;20163;-81
2022/05/20 04:22:45;;;;;;;10.45;4.20;;;;;17.40;94676.00;;;;7393915;19;20133;-81
2022/05/20 04:25:13;;;;;;;6.95;4.47;;;;;17.50;94673.00;;;;7394082;19;20143;-82
2022/05/20 04:27:46;;;;;;;8.93;4.95;;;;;17.50;94667.00;;;;7391529;19;20142;-81
2022/05/20 04:30:14;;;;;;;7.40;4.72;;;;;17.60;94677.00;;;;7394829;19;20147;-81
2022/05/20 04:32:42;;;;;;;8.27;3.95;;;;;17.50;94674.00;;;;7394590;19;20136;-81
2022/05/20 04:35:15;;;;;;;6.65;4.22;;;;;17.50;94680.00;;;;7392240;19;20497;-81
2022/05/20 04:37:43;;;;;;;6.78;4.40;;;;;17.70;94673.00;;;;7394187;19;20141;-80
2022/05/20 04:40:11;;;;;;;4.78;4.28;;;;;17.50;94675.00;;;;7393870;19;20591;-81
2022/05/20 04:48:25;;;;;;;5.88;4.35;;;;;17.40;94677.00;;;;7391302;19;20476;-82
2022/05/20 04:50:52;;;;;;;8.93;4.40;;;;;17.50;94683.00;;;;7395477;19;20133;-82
2022/05/20 04:56:13;;;;;;;9.80;4.40;;;;;17.60;94689.00;;;;7397755;19;20145;-82
2022/05/20 04:58:40;;;;;;;9.80;4.80;;;;;17.70;94684.00;;;;7394501;19;20596;-81
2022/05/20 05:01:08;;;;;;;9.13;4.30;;;;;17.90;94691.00;;;;7395020;19;20125;-82
2022/05/20 05:03:49;;;;;;;6.30;4.28;;;;;18.10;94682.00;;;;7396697;19;20196;-82
2022/05/20 05:06:23;;;;;;;5.25;4.22;;;;;18.30;94675.00;;;;7397606;19;20604;-82
2022/05/20 05:08:57;;;;;;;6.53;4.68;;;;;18.30;94688.00;;;;7395296;19;20614;-81
2022/05/20 05:11:26;;;;;;;12.20;4.60;;;;;18.50;94685.00;;;;7397174;19;20501;-82
2022/05/20 05:13:54;;;;;;;9.05;4.40;;;;;18.70;94689.00;;;;7398490;19;20137;-82
2022/05/20 05:16:29;;;;;;;6.78;4.30;;;;;19.00;94685.00;;;;7393738;19;20157;-79
2022/05/20 05:18:57;;;;;;;7.55;4.13;;;;;19.40;94679.00;;;;7396854;19;20124;-82
2022/05/20 05:21:25;;;;;;;9.55;4.53;;;;;19.70;94690.00;;;;7398014;19;20140;-80
2022/05/20 05:24:00;;;;;;;7.97;5.28;;;;;19.80;94690.00;;;;7398612;19;20128;-81
2022/05/20 05:26:32;;;;;;;7.50;3.88;;;;;20.00;94693.00;;;;7394484;19;20141;-80
2022/05/20 05:29:07;;;;;;;10.35;4.45;;;;;20.00;94693.00;;;;7395799;19;20144;-82
2022/05/20 05:31:35;;;;;;;4.63;4.10;;;;;20.10;94693.00;;;;7398479;19;20159;-81
2022/05/20 05:34:03;;;;;;;7.00;4.07;;;;;20.20;94694.00;;;;7397049;19;20223;-82
2022/05/20 05:36:38;;;;;;;5.90;4.15;;;;;20.40;94683.00;;;;7394651;19;20212;-81
2022/05/20 05:39:06;;;;;;;6.82;4.03;;;;;20.60;94681.00;;;;7395307;19;20144;-82
2022/05/20 05:41:34;;;;;;;11.27;4.45;;;;;20.90;94675.00;;;;7397206;19;20141;-82
2022/05/20 05:44:08;;;;;;;8.10;4.20;;;;;21.10;94679.00;;;;7400400;19;20132;-82
2022/05/20 05:46:36;;;;;;;7.22;3.47;;;;;21.30;94665.00;;;;7394381;19;20125;-82
2022/05/20 05:49:04;;;;;;;6.65;3.92;;;;;21.50;94673.00;;;;7394654;19;20168;-82
2022/05/20 05:51:39;;;;;;;7.97;4.13;;;;;21.60;94668.00;;;;7396893;19;20148;-82
2022/05/20 05:54:07;;;;;;;10.40;3.90;;;;;21.90;94665.00;;;;7400271;19;20572;-81
2022/05/20 05:56:36;;;;;;;8.45;4.00;;;;;21.90;94673.00;;;;7393688;19;20517;-82
2022/05/20 05:59:10;;;;;;;10.23;4.40;;;;;22.00;94666.00;;;;7393342;19;20147;-82
2022/05/20 06:01:38;;;;;;;10.55;4.40;;;;;22.20;94674.00;;;;7396979;19;20136;-82
2022/05/20 06:04:06;;;;;;;5.47;4.45;;;;;22.20;94672.00;;;;7396417;19;20177;-79
2022/05/20 06:06:49;;;;;;;5.63;4.45;;;;;22.50;94681.00;;;;7396189;19;20141;-80
2022/05/20 06:09:17;;;;;;;7.60;4.65;;;;;22.50;94672.00;;;;7396394;19;20128;-80
2022/05/20 06:11:52;;;;;;;8.10;4.25;;;;;22.70;94690.00;;;;7398249;19;20140;-80
2022/05/20 06:14:20;;;;;;;5.93;4.47;;;;;22.30;94683.00;;;;7394688;19;20185;-80
2022/05/20 06:16:48;;;;;;;7.50;4.75;;;;;22.40;94694.00;;;;7392101;19;20148;-80
2022/05/20 06:19:22;;;;;;;5.80;4.63;;;;;21.90;94681.00;;;;7396450;19;20152;-80
2022/05/20 06:21:50;;;;;;;6.68;4.22;;;;;21.90;94688.00;;;;7397187;19;20124;-82
2022/05/20 06:24:23;;;;;;;5.00;4.43;;;;;22.00;94678.00;;;;7395318;19;20145;-79
2022/05/20 06:26:58;;;;;;;7.65;4.90;;;;;22.40;94693.00;;;;7389992;19;20203;-82
2022/05/20 06:29:26;;;;;;;5.80;4.63;;;;;22.10;94681.00;;;;7395430;19;20124;-82
2022/05/20 06:31:53;;;;;;;11.68;5.13;;;;;21.80;94690.00;;;;7396615;19;20144;-82
2022/05/20 06:39:48;;;;;;;6.88;4.75;;;;;21.60;94698.00;;;;7391576;19;20168;-82
2022/05/20 06:40:18;;;;;;;5.80;4.70;;;;;21.80;94680.00;;;;7396065;19;20891;-82
2022/05/20 06:42:46;;;;;;;8.55;4.75;;;;;22.60;94680.00;;;;7392959;19;20496;-82
2022/05/20 06:45:15;;;;;;;7.72;4.82;;;;;23.00;94683.00;;;;7393799;19;20508;-83
2022/05/20 06:47:50;;;;;;;6.40;4.90;;;;;22.70;94691.00;;;;7393456;19;20193;-81
2022/05/20 06:50:18;;;;;;;7.57;4.47;;;;;22.40;94690.00;;;;7392056;19;20585;-82
2022/05/20 06:52:49;;;;;;;7.68;4.70;;;;;21.90;94694.00;;;;7391316;19;20166;-83
2022/05/20 06:55:24;;;;;;;8.60;4.82;;;;;21.60;94688.00;;;;7394133;19;20140;-83
2022/05/20 06:57:51;;;;;;;8.45;5.05;;;;;22.20;94689.00;;;;7393808;19;20149;-83
2022/05/20 07:00:19;;;;;;;8.57;5.05;;;;;22.80;94688.00;;;;7391194;19;20147;-84
2022/05/20 07:02:54;;;;;;;7.57;4.85;;;;;22.60;94704.00;;;;7393054;19;20207;-83
2022/05/20 07:05:36;;;;;;;8.32;5.00;;;;;22.70;94683.00;;;;7392368;19;20504;-84
2022/05/20 07:08:11;;;;;;;10.50;4.68;;;;;23.60;94674.00;;;;7390290;19;20946;-84
2022/05/20 07:10:43;;;;;;;11.38;4.78;;;;;24.30;94673.00;;;;7392819;19;20145;-80
2022/05/20 07:13:31;;;;;;;9.70;5.38;;;;;24.80;94665.00;;;;7394922;19;20141;-81
2022/05/20 07:16:06;;;;;;;7.53;4.70;;;;;24.10;94673.00;;;;7395923;19;20492;-81
2022/05/20 07:18:34;;;;;;;6.65;4.80;;;;;23.70;94665.00;;;;7391762;19;20518;-81
2022/05/20 07:21:04;;;;;;;6.65;5.10;;;;;24.20;94662.00;;;;7393888;19;20157;-81
2022/05/20 07:23:39;;;;;;;7.00;4.60;;;;;24.30;94654.00;;;;7395519;19;20144;-82
2022/05/20 07:26:08;;;;;;;10.20;5.00;;;;;24.50;94655.00;;;;7395628;19;20141;-82
2022/05/20 07:28:36;;;;;;;7.28;4.40;;;;;24.80;94658.00;;;;7390851;19;20586;-81
2022/05/20 07:31:11;;;;;;;8.27;4.80;;;;;25.00;94657.00;;;;7393291;19;20175;-80
2022/05/20 07:33:40;;;;;;;5.57;4.47;;;;;24.70;94656.00;;;;7392235;19;20519;-81
2022/05/20 07:36:08;;;;;;;7.15;4.63;;;;;25.00;94657.00;;;;7396437;19;20608;-80
2022/05/20 07:38:43;;;;;;;8.10;4.47;;;;;25.30;94657.00;;;;7401599;19;20568;-81
2022/05/20 07:41:12;;;;;;;10.98;4.50;;;;;25.50;94656.00;;;;7400849;19;20144;-81
2022/05/20 07:43:40;;;;;;;9.20;4.47;;;;;25.70;94657.00;;;;7402018;19;20133;-81
2022/05/20 07:46:15;;;;;;;8.57;4.47;;;;;25.70;94651.00;;;;7403249;19;20153;-80
2022/05/20 07:48:42;;;;;;;6.05;4.35;;;;;25.90;94658.00;;;;7397563;19;20174;-80
2022/05/20 07:51:15;;;;;;;5.50;4.15;;;;;26.10;94655.00;;;;7398436;19;20137;-80
2022/05/20 07:54:06;;;;;;;9.68;4.35;;;;;26.30;94659.00;;;;7401708;19;20644;-80
2022/05/20 07:56:41;;;;;;;6.43;3.88;;;;;26.50;94651.00;;;;7401121;19;20587;-79
2022/05/20 07:59:24;;;;;;;6.68;3.25;;;;;26.80;94632.00;;;;7398982;19;20141;-80
2022/05/20 08:01:53;;;;;;;7.28;2.75;;;;;27.20;94628.00;;;;7401199;19;20208;-78
2022/05/20 08:05:00;;;;;;;6.30;2.72;;;;;27.40;94620.00;;;;7397274;19;20200;-78
2022/05/20 08:07:38;;;;;;;5.00;3.08;;;;;27.70;94622.00;;;;7400270;19;20152;-78
2022/05/20 08:10:19;;;;;;;5.03;3.28;;;;;27.80;94621.00;;;;7400392;19;20729;-78
2022/05/20 08:12:47;;;;;;;7.65;3.20;;;;;27.70;94625.00;;;;7397900;19;20147;-79
2022/05/20 08:15:21;;;;;;;9.73;3.03;;;;;27.70;94618.00;;;;7399332;19;20176;-80
2022/05/20 08:17:49;;;;;;;8.70;3.00;;;;;27.80;94620.00;;;;7397166;19;20125;-80
2022/05/20 08:20:22;;;;;;;7.28;3.25;;;;;28.20;94622.00;;;;7400143;19;20121;-80
2022/05/20 08:22:58;;;;;;;4.18;2.78;;;;;28.30;94626.00;;;;7398303;19;20148;-79
2022/05/20 08:25:26;;;;;;;7.68;3.00;;;;;28.20;94623.00;;;;7399280;19;20172;-79
2022/05/20 08:27:54;;;;;;;5.45;3.00;;;;;28.40;94618.00;;;;7399040;19;20622;-79
2022/05/20 08:30:29;;;;;;;7.20;3.10;;;;;28.70;94618.00;;;;7397714;19;20615;-79
2022/05/20 08:32:57;;;;;;;10.23;3.05;;;;;28.90;94609.00;;;;7399077;19;20641;-78
2022/05/20 08:35:27;;;;;;;7.38;2.70;;;;;28.90;94605.00;;;;7398595;19;20161;-79
2022/05/20 08:38:04;;;;;;;10.20;3.17;;;;;28.90;94612.00;;;;7399340;19;20157;-79
2022/05/20 08:40:41;;;;;;;6.72;2.95;;;;;28.90;94603.00;;;;7396213;19;20144;-81
2022/05/20 08:43:24;;;;;;;13.43;3.28;;;;;28.50;94613.00;;;;7400067;19;20400;-78
2022/05/20 08:45:52;;;;;;;9.80;3.15;;;;;28.30;94618.00;;;;7396602;19;20131;-79
2022/05/20 08:48:27;;;;;;;4.60;3.10;;;;;28.40;94609.00;;;;7394729;19;20497;-78
2022/05/20 08:50:56;;;;;;;7.03;3.05;;;;;28.50;94613.00;;;;7398075;19;20144;-80
2022/05/20 08:53:46;;;;;;;6.53;3.00;;;;;28.70;94615.00;;;;7395553;19;20130;-81
2022/05/20 08:56:24;;;;;;;5.90;2.55;;;;;28.70;94619.00;;;;7396117;19;20140;-78
2022/05/20 08:59:05;;;;;;;5.75;3.00;;;;;28.70;94611.00;;;;7396211;19;20125;-78
2022/05/20 09:01:46;;;;;;;9.98;3.15;;;;;28.70;94608.00;;;;7398147;19;20155;-78
2022/05/20 09:04:24;;;;;;;6.50;3.17;;;;;28.90;94616.00;;;;7399150;19;20140;-78
2022/05/20 09:07:10;;;;;;;5.78;3.28;;;;;28.60;94614.00;;;;7398393;19;20152;-81
2022/05/20 09:09:56;;;;;;;5.25;2.72;;;;;28.90;94610.00;;;;7398143;19;20188;-80
2022/05/20 09:12:35;;;;;;;5.85;3.05;;;;;28.80;94604.00;;;;7395931;19;20129;-81
2022/05/20 09:18:07;;;;;;;6.13;3.03;;;;;28.90;94595.00;;;;7394992;19;20177;-81
2022/05/20 09:20:46;;;;;;;14.27;2.92;;;;;29.10;94596.00;;;;7396038;19;20154;-80
2022/05/20 09:23:22;;;;;;;9.35;2.80;;;;;29.40;94595.00;;;;7396442;19;20148;-78
2022/05/20 09:26:09;;;;;;;5.60;2.97;;;;;29.30;94583.00;;;;7398970;19;20133;-80
2022/05/20 09:28:45;;;;;;;6.65;2.72;;;;;29.20;94591.00;;;;7393707;19;20608;-77
2022/05/20 09:31:16;;;;;;;7.65;3.25;;;;;29.70;94586.00;;;;7396928;19;20496;-78
2022/05/20 09:33:56;;;;;;;6.65;2.78;;;;;30.10;94580.00;;;;7392861;19;20196;-77
2022/05/20 09:36:45;;;;;;;5.80;3.38;;;;;29.90;94598.00;;;;7395925;19;20591;-77
2022/05/20 09:39:19;;;;;;;7.18;2.72;;;;;29.50;94588.00;;;;7397595;19;20135;-79
2022/05/20 09:41:55;;;;;;;7.70;3.20;;;;;29.40;94585.00;;;;7396953;19;20143;-77
2022/05/20 09:44:31;;;;;;;8.43;3.42;;;;;29.30;94575.00;;;;7396533;19;20611;-79
2022/05/20 09:47:15;;;;;;;5.95;3.20;;;;;29.00;94571.00;;;;7396068;19;20212;-77
2022/05/20 09:49:53;;;;;;;7.35;3.08;;;;;29.10;94585.00;;;;7396681;19;20160;-78
2022/05/20 09:52:51;;;;;;;6.38;3.28;;;;;29.80;94565.00;;;;7394608;19;20132;-78
2022/05/20 09:55:40;;;;;;;8.85;3.47;;;;;29.90;94565.00;;;;7396314;19;20148;-77
2022/05/20 09:58:21;;;;;;;6.15;3.22;;;;;29.90;94572.00;;;;7400299;19;20125;-77
2022/05/20 10:01:03;;;;;;;5.68;2.85;;;;;30.10;94563.00;;;;7392021;19;20145;-77
2022/05/20 10:03:44;;;;;;;4.80;2.88;;;;;29.70;94567.00;;;;7396997;19;20185;-77
2022/05/20 10:06:42;;;;;;;6.93;3.50;;;;;29.50;94572.00;;;;7393613;19;20193;-77
2022/05/20 10:09:47;;;;;;;9.05;2.97;;;;;29.50;94577.00;;;;7392737;19;20177;-78
2022/05/20 10:12:28;;;;;;;12.27;3.25;;;;;30.10;94566.00;;;;7397571;19;20569;-78
2022/05/20 10:15:16;;;;;;;9.18;3.38;;;;;29.90;94576.00;;;;7395987;19;20175;-79
2022/05/20 10:17:43;;;;;;;4.85;2.90;;;;;30.00;94590.00;;;;7395298;19;20136;-79
2022/05/20 10:20:36;;;;;;;7.88;3.20;;;;;29.50;94597.00;;;;7394123;19;20153;-77
2022/05/20 10:23:36;;;;;;;7.50;3.00;;;;;28.90;94603.00;;;;7394804;19;20243;-79
2022/05/20 10:26:26;;;;;;;8.18;2.78;;;;;29.10;94568.00;;;;7395414;19;20156;-78
2022/05/20 10:32:36;;;;;;;6.70;3.33;;;;;29.80;94562.00;;;;7396433;19;20171;-79
2022/05/20 10:35:13;;;;;;;6.50;3.35;;;;;29.90;94576.00;;;;7395403;19;20202;-79
2022/05/20 10:38:24;;;;;;;4.78;2.85;;;;;29.90;94555.00;;;;7399055;19;20148;-80
2022/05/20 10:41:01;;;;;;;9.45;3.50;;;;;30.40;94552.00;;;;7395372;19;20457;-80
2022/05/20 10:50:16;;;;;;;7.38;3.50;;;;;31.30;94534.00;;;;7393995;19;20585;-80
2022/05/20 10:53:10;;;;;;;8.27;3.17;;;;;30.70;94543.00;;;;7394213;19;20148;-81
2022/05/20 10:56:16;;;;;;;6.65;3.22;;;;;30.70;94525.00;;;;7393524;19;20141;-78
2022/05/20 10:58:56;;;;;;;6.57;3.40;;;;;31.00;94514.00;;;;7390846;19;20646;-80
2022/05/20 11:01:55;;;;;;;10.25;3.47;;;;;31.20;94512.00;;;;7392534;19;20497;-80
2022/05/20 11:05:00;;;;;;;9.95;3.67;;;;;29.90;94502.00;;;;7390321;19;20133;-80
2022/05/20 11:07:50;;;;;;;6.85;3.15;;;;;30.10;94494.00;;;;7393900;19;20607;-81
2022/05/20 11:10:25;;;;;;;10.48;3.40;;;;;29.60;94503.00;;;;7392086;19;20145;-81
2022/05/20 11:13:15;;;;;;;10.10;3.40;;;;;29.20;94494.00;;;;7400184;19;20144;-82
2022/05/20 11:15:49;;;;;;;12.13;3.67;;;;;29.00;94470.00;;;;7402629;19;20461;-82
2022/05/20 11:18:37;;;;;;;8.23;3.42;;;;;29.70;94441.00;;;;7400337;19;20489;-81
2022/05/20 11:21:28;;;;;;;8.40;3.15;;;;;29.70;94433.00;;;;7399703;19;20144;-83
2022/05/20 11:24:27;;;;;;;10.90;3.53;;;;;29.40;94436.00;;;;7401110;19;20144;-81
2022/05/20 11:27:08;;;;;;;9.25;3.20;;;;;29.50;94432.00;;;;7399595;19;20148;-82
2022/05/20 11:30:00;;;;;;;6.70;3.53;;;;;29.40;94415.00;;;;7398317;19;20613;-80
2022/05/20 11:32:28;;;;;;;5.85;2.97;;;;;29.20;94418.00;;;;7398324;19;20184;-80
2022/05/20 11:35:35;;;;;;;8.98;3.47;;;;;29.20;94426.00;;;;7396910;19;20171;-82
2022/05/20 11:38:40;;;;;;;8.98;3.35;;;;;30.00;94416.00;;;;7401329;19;20151;-83
2022/05/20 11:41:25;;;;;;;8.13;3.67;;;;;30.50;94411.00;;;;7401909;19;20149;-81
2022/05/20 11:44:27;;;;;;;6.60;2.97;;;;;30.10;94404.00;;;;7402411;19;20144;-80
2022/05/20 11:47:21;;;;;;;6.18;3.25;;;;;30.50;94405.00;;;;7400864;19;20144;-81
2022/05/20 11:49:55;;;;;;;7.13;3.10;;;;;30.90;94388.00;;;;7399966;19;20129;-80
2022/05/20 11:52:36;;;;;;;6.25;3.08;;;;;31.30;94396.00;;;;7399039;19;20507;-78
2022/05/20 11:55:16;;;;;;;9.55;3.42;;;;;31.10;94393.00;;;;7400722;19;20461;-82
2022/05/20 11:58:05;;;;;;;7.25;3.55;;;;;30.90;94374.00;;;;7397557;19;20610;-82
2022/05/20 12:00:37;;;;;;;8.35;3.67;;;;;31.80;94371.00;;;;7398415;19;20140;-82
2022/05/20 12:03:26;;;;;;;7.55;3.50;;;;;32.50;94355.00;;;;7400820;19;20136;-81
2022/05/20 12:06:02;;;;;;;8.98;3.80;;;;;32.50;94358.00;;;;7398382;19;20868;-80
2022/05/20 12:08:48;;;;;;;6.28;3.50;;;;;32.70;94350.00;;;;7395540;19;20120;-83
2022/05/20 12:11:37;;;;;;;7.93;3.47;;;;;33.10;94346.00;;;;7399172;19;20463;-83
2022/05/20 12:14:16;;;;;;;7.07;3.17;;;;;33.10;94345.00;;;;7402282;19;20480;-81
2022/05/20 12:17:04;;;;;;;8.63;4.03;;;;;32.90;94338.00;;;;7396902;19;20144;-83
2022/05/20 12:26:21;;;;;;;7.18;3.85;;;;;31.50;94325.00;;;;7397508;19;20156;-79
2022/05/20 12:28:49;;;;;;;7.57;3.60;;;;;31.80;94313.00;;;;7397592;19;20550;-82
2022/05/20 12:31:40;;;;;;;10.30;3.85;;;;;31.90;94315.00;;;;7402135;19;20144;-82
2022/05/20 12:34:28;;;;;;;12.65;3.80;;;;;32.10;94310.00;;;;7400870;19;20141;-80
2022/05/20 12:37:03;;;;;;;6.30;3.30;;;;;32.10;94310.00;;;;7398020;19;20133;-79
2022/05/20 12:39:52;;;;;;;12.93;4.03;;;;;32.40;94309.00;;;;7397987;19;20136;-81
2022/05/20 12:42:44;;;;;;;8.18;3.70;;;;;32.00;94305.00;;;;7397438;19;20481;-80
2022/05/20 12:45:14;;;;;;;6.75;3.08;;;;;31.80;94288.00;;;;7397582;19;20171;-82
2022/05/20 12:47:49;;;;;;;6.45;3.65;;;;;31.70;94280.00;;;;7398897;19;20147;-82
2022/05/20 12:50:17;;;;;;;8.75;3.60;;;;;32.30;94282.00;;;;7396830;19;20149;-83
2022/05/20 12:52:46;;;;;;;9.85;4.05;;;;;32.20;94273.00;;;;7396742;19;20144;-80
2022/05/20 12:55:27;;;;;;;7.05;3.50;;;;;32.10;94268.00;;;;7396363;19;20183;-83
2022/05/20 12:58:00;;;;;;;7.85;3.38;;;;;31.70;94265.00;;;;7398806;19;20139;-78
2022/05/20 13:00:44;;;;;;;6.65;3.40;;;;;31.90;94265.00;;;;7396316;19;20153;-82
2022/05/20 13:03:26;;;;;;;7.80;3.50;;;;;31.70;94265.00;;;;7397479;19;20452;-79
2022/05/20 13:06:18;;;;;;;6.93;3.50;;;;;31.70;94245.00;;;;7395583;19;21239;-81
2022/05/20 13:08:51;;;;;;;9.18;3.63;;;;;31.40;94239.00;;;;7394228;19;20144;-79
2022/05/20 13:11:25;;;;;;;10.73;3.20;;;;;31.60;94236.00;;;;7396730;19;20623;-81
2022/05/20 13:13:58;;;;;;;7.28;3.38;;;;;32.00;94246.00;;;;7396474;19;20143;-78
2022/05/20 13:16:33;;;;;;;9.32;3.25;;;;;31.50;94223.00;;;;7395901;19;20204;-81
2022/05/20 13:19:04;;;;;;;9.93;3.60;;;;;31.70;94244.00;;;;7394866;19;20603;-79
2022/05/20 13:21:56;;;;;;;7.82;3.40;;;;;31.80;94249.00;;;;7396366;19;20550;-80
2022/05/20 13:24:36;;;;;;;6.07;3.42;;;;;32.10;94260.00;;;;7395513;19;20144;-80
2022/05/20 13:27:21;;;;;;;9.80;3.05;;;;;31.30;94264.00;;;;7397648;19;20472;-78
2022/05/20 13:30:12;;;;;;;10.40;2.70;;;;;30.90;94261.00;;;;7395908;19;20160;-79
2022/05/20 13:32:40;;;;;;;7.68;3.38;;;;;30.50;94264.00;;;;7395395;19;20140;-78
2022/05/20 13:35:15;;;;;;;20.35;3.78;;;;;30.20;94258.00;;;;7394470;19;20151;-80
2022/05/20 13:37:51;;;;;;;15.45;3.75;;;;;30.60;94261.00;;;;7395665;19;20144;-78
2022/05/20 13:40:36;;;;;;;6.90;3.20;;;;;31.00;94243.00;;;;7393279;19;20500;-79